createdAt,value
2019-03-23T00:02:09.282Z,25.21
2019-03-23T00:05:13.455Z,25.20
2019-03-23T00:08:17.570Z,25.19
2019-03-23T00:11:21.784Z,25.18
2019-03-23T00:14:25.871Z,25.17
2019-03-23T00:17:29.911Z,25.17
2019-03-23T00:20:33.927Z,25.15
2019-03-23T00:23:38.213Z,25.14
2019-03-23T00:26:42.325Z,25.13
2019-03-23T00:29:46.456Z,25.13
2019-03-23T00:32:50.572Z,25.12
2019-03-23T00:35:54.527Z,25.12
2019-03-23T00:38:58.515Z,25.10
2019-03-23T00:42:02.651Z,25.11
2019-03-23T00:45:07.168Z,25.10
2019-03-23T00:48:11.170Z,25.08
2019-03-23T00:51:15.252Z,25.08
2019-03-23T00:54:20.312Z,25.08
2019-03-23T00:57:24.571Z,25.07
2019-03-23T01:00:28.636Z,25.05
2019-03-23T01:03:32.675Z,25.04
2019-03-23T01:06:36.809Z,25.04
2019-03-23T01:09:41.007Z,25.04
2019-03-23T01:12:47.127Z,25.03
2019-03-23T01:15:51.253Z,25.02
2019-03-23T01:18:55.373Z,25.01
2019-03-23T01:21:59.330Z,25.00
2019-03-23T01:25:07.239Z,24.99
2019-03-23T01:28:11.221Z,24.99
2019-03-23T01:31:15.305Z,24.99
2019-03-23T01:34:19.419Z,24.98
2019-03-23T01:37:23.388Z,24.97
2019-03-23T01:40:27.376Z,24.95
2019-03-23T01:43:31.334Z,24.96
2019-03-23T01:46:36.428Z,24.94
2019-03-23T01:49:40.457Z,24.95
2019-03-23T01:52:44.527Z,24.93
2019-03-23T01:55:49.610Z,24.93
2019-03-23T01:58:54.732Z,24.93
2019-03-23T02:01:58.737Z,24.92
2019-03-23T02:05:02.843Z,24.92
2019-03-23T02:08:07.912Z,24.91
2019-03-23T02:11:11.918Z,24.90
2019-03-23T02:14:15.952Z,24.88
2019-03-23T02:17:20.301Z,24.89
2019-03-23T02:20:24.430Z,24.88
2019-03-23T02:23:28.551Z,24.87
2019-03-23T02:26:33.694Z,24.87
2019-03-23T02:29:37.734Z,24.87
2019-03-23T02:32:41.715Z,24.86
2019-03-23T02:35:46.689Z,24.84
2019-03-23T02:38:50.809Z,24.84
2019-03-23T02:41:55.907Z,24.83
2019-03-23T02:44:59.953Z,24.82
2019-03-23T02:48:05.243Z,24.83
2019-03-23T02:51:09.311Z,24.82
2019-03-23T02:54:14.403Z,24.81
2019-03-23T02:57:18.546Z,24.81
2019-03-23T03:00:22.590Z,24.80
2019-03-23T03:03:28.587Z,24.80
2019-03-23T03:06:32.738Z,24.80
2019-03-23T03:09:36.769Z,24.80
2019-03-23T03:12:40.958Z,24.78
2019-03-23T03:15:45.051Z,24.79
2019-03-23T03:18:49.193Z,24.77
2019-03-23T03:21:53.492Z,24.76
2019-03-23T03:24:57.550Z,24.76
2019-03-23T03:28:01.570Z,24.77
2019-03-23T03:31:05.645Z,24.76
2019-03-23T03:34:09.673Z,24.76
2019-03-23T03:37:13.798Z,24.75
2019-03-23T03:40:17.779Z,24.74
2019-03-23T03:43:21.821Z,24.73
2019-03-23T03:46:25.790Z,24.73
2019-03-23T03:49:29.854Z,24.74
2019-03-23T03:52:33.857Z,24.72
2019-03-23T03:55:37.878Z,24.71
2019-03-23T03:58:42.041Z,24.71
2019-03-23T04:01:47.206Z,24.69
2019-03-23T04:04:51.326Z,24.70
2019-03-23T04:08:09.843Z,24.70
2019-03-23T04:11:01.421Z,24.69
2019-03-23T04:14:05.510Z,24.69
2019-03-23T04:17:09.687Z,24.70
2019-03-23T04:20:13.642Z,24.68
2019-03-23T04:23:17.684Z,24.68
2019-03-23T04:26:21.762Z,24.68
2019-03-23T04:29:25.718Z,24.67
2019-03-23T04:32:29.712Z,24.66
2019-03-23T04:35:33.749Z,24.66
2019-03-23T04:38:38.829Z,24.67
2019-03-23T04:41:42.874Z,24.65
2019-03-23T04:44:46.966Z,24.65
2019-03-23T04:47:51.222Z,24.65
2019-03-23T04:50:55.266Z,24.64
2019-03-23T04:53:59.339Z,24.64
2019-03-23T04:57:03.343Z,24.64
2019-03-23T05:00:08.613Z,24.62
2019-03-23T05:03:12.801Z,24.63
2019-03-23T05:06:17.847Z,24.63
2019-03-23T05:09:21.808Z,24.61
2019-03-23T05:12:25.950Z,24.61
2019-03-23T05:15:31.002Z,24.61
2019-03-23T05:18:35.199Z,24.60
2019-03-23T05:21:40.328Z,24.60
2019-03-23T05:24:45.414Z,24.60
2019-03-23T05:27:49.581Z,24.60
2019-03-23T05:30:53.729Z,24.58
2019-03-23T05:33:57.762Z,24.58
2019-03-23T05:37:02.001Z,24.58
2019-03-23T05:40:06.817Z,24.59
2019-03-23T05:43:10.914Z,24.57
2019-03-23T05:46:14.941Z,24.57
2019-03-23T05:49:18.933Z,24.57
2019-03-23T05:52:23.136Z,24.57
2019-03-23T05:55:27.235Z,24.57
2019-03-23T05:58:32.354Z,24.57
2019-03-23T06:01:37.538Z,24.57
2019-03-23T06:04:42.674Z,24.56
2019-03-23T06:07:46.796Z,24.55
2019-03-23T06:10:50.896Z,24.55
2019-03-23T06:13:55.024Z,24.56
2019-03-23T06:16:58.984Z,24.56
2019-03-23T06:20:04.707Z,24.55
2019-03-23T06:23:08.906Z,24.54
2019-03-23T06:26:13.428Z,24.55
2019-03-23T06:29:17.614Z,24.54
2019-03-23T06:32:21.665Z,24.54
2019-03-23T06:35:25.860Z,24.54
2019-03-23T06:38:30.948Z,24.54
2019-03-23T06:41:35.108Z,24.54
2019-03-23T06:44:39.074Z,24.54
2019-03-23T06:47:43.142Z,24.53
2019-03-23T06:50:47.450Z,24.53
2019-03-23T06:53:51.594Z,24.54
2019-03-23T06:56:55.638Z,24.55
2019-03-23T06:59:59.673Z,24.53
2019-03-23T07:03:03.737Z,24.53
2019-03-23T07:06:07.741Z,24.54
2019-03-23T07:09:16.142Z,24.54
2019-03-23T07:12:17.777Z,24.52
2019-03-23T07:15:22.025Z,24.53
2019-03-23T07:18:26.161Z,24.54
2019-03-23T07:21:30.153Z,24.58
2019-03-23T07:24:34.373Z,24.62
2019-03-23T07:27:40.529Z,24.67
2019-03-23T07:30:44.568Z,24.69
2019-03-23T07:33:48.773Z,24.72
2019-03-23T07:36:52.746Z,24.73
2019-03-23T07:39:56.940Z,24.74
2019-03-23T07:43:00.957Z,24.76
2019-03-23T07:46:05.012Z,24.77
2019-03-23T07:49:08.992Z,24.78
2019-03-23T07:52:12.947Z,24.80
2019-03-23T07:55:16.982Z,24.81
2019-03-23T07:58:20.938Z,24.80
2019-03-23T08:01:24.906Z,24.82
2019-03-23T08:04:29.031Z,24.84
2019-03-23T08:07:33.022Z,24.84
2019-03-23T08:10:37.049Z,24.86
2019-03-23T08:13:41.081Z,24.87
2019-03-23T08:16:45.147Z,24.89
2019-03-23T08:19:49.191Z,24.89
2019-03-23T08:22:53.410Z,24.91
2019-03-23T08:25:57.505Z,24.93
2019-03-23T08:29:03.294Z,24.93
2019-03-23T08:32:08.508Z,24.94
2019-03-23T08:35:12.697Z,24.97
2019-03-23T08:38:16.626Z,24.97
2019-03-23T08:41:20.754Z,24.98
2019-03-23T08:44:24.776Z,24.99
2019-03-23T08:47:28.736Z,25.00
2019-03-23T08:50:32.809Z,25.02
2019-03-23T08:53:36.996Z,25.03
2019-03-23T08:56:41.047Z,25.04
2019-03-23T08:59:45.060Z,25.05
2019-03-23T09:02:49.092Z,25.07
2019-03-23T09:05:53.171Z,25.08
2019-03-23T09:08:57.389Z,25.10
2019-03-23T09:12:01.408Z,25.11
2019-03-23T09:15:07.102Z,25.12
2019-03-23T09:18:11.280Z,25.09
2019-03-23T09:21:15.397Z,25.11
2019-03-23T09:24:19.515Z,25.13
2019-03-23T09:27:23.629Z,25.14
2019-03-23T09:30:28.620Z,25.14
2019-03-23T09:33:32.746Z,25.15
2019-03-23T09:36:36.787Z,25.15
2019-03-23T09:39:40.803Z,25.16
2019-03-23T09:42:44.791Z,25.18
2019-03-23T09:45:48.931Z,25.19
2019-03-23T09:48:53.064Z,25.19
2019-03-23T09:51:58.076Z,25.20
2019-03-23T09:55:02.130Z,25.20
2019-03-23T09:58:06.230Z,25.20
2019-03-23T10:01:10.316Z,25.23
2019-03-23T10:04:14.436Z,25.26
2019-03-23T10:07:18.568Z,25.26
2019-03-23T10:10:22.669Z,25.28
2019-03-23T10:13:26.637Z,25.30
2019-03-23T10:16:30.707Z,25.31
2019-03-23T10:19:34.847Z,25.33
2019-03-23T10:22:38.926Z,25.34
2019-03-23T10:25:43.034Z,25.36
2019-03-23T10:28:47.158Z,25.38
2019-03-23T10:31:51.265Z,25.40
2019-03-23T10:34:55.371Z,25.43
2019-03-23T10:37:59.507Z,25.44
2019-03-23T10:41:03.629Z,25.45
2019-03-23T10:44:07.827Z,25.47
2019-03-23T10:47:11.864Z,25.48
2019-03-23T10:50:15.958Z,25.51
2019-03-23T10:53:23.159Z,25.54
2019-03-23T10:56:25.852Z,25.54
2019-03-23T10:59:29.948Z,25.56
2019-03-23T11:02:34.083Z,25.60
2019-03-23T11:05:38.181Z,25.60
2019-03-23T11:08:42.374Z,25.63
2019-03-23T11:11:46.512Z,25.66
2019-03-23T11:14:50.544Z,25.67
2019-03-23T11:17:54.663Z,25.69
2019-03-23T11:21:00.159Z,25.72
2019-03-23T11:24:04.514Z,25.74
2019-03-23T11:27:08.626Z,25.77
2019-03-23T11:30:13.799Z,25.79
2019-03-23T11:33:18.272Z,25.80
2019-03-23T11:36:22.479Z,25.82
2019-03-23T11:39:26.638Z,25.86
2019-03-23T11:42:30.912Z,25.88
2019-03-23T11:45:37.039Z,25.90
2019-03-23T11:48:41.137Z,25.92
2019-03-23T11:51:45.235Z,25.95
2019-03-23T11:54:49.362Z,25.96
2019-03-23T11:57:53.492Z,26.00
2019-03-23T12:00:58.625Z,26.02
2019-03-23T12:04:02.736Z,26.04
2019-03-23T12:07:06.841Z,26.06
2019-03-23T12:10:11.200Z,26.09
2019-03-23T12:13:15.308Z,26.11
2019-03-23T12:16:19.384Z,26.13
2019-03-23T12:19:23.424Z,26.16
2019-03-23T12:22:27.432Z,26.17
2019-03-23T12:25:31.527Z,26.21
2019-03-23T12:28:35.648Z,26.23
2019-03-23T12:31:40.887Z,26.25
2019-03-23T12:34:48.038Z,26.27
2019-03-23T12:37:54.435Z,26.29
2019-03-23T12:40:58.786Z,26.30
2019-03-23T12:44:03.066Z,26.31
2019-03-23T12:47:07.189Z,26.33
2019-03-23T12:50:11.336Z,26.36
2019-03-23T12:53:15.422Z,26.38
2019-03-23T12:56:19.409Z,26.40
2019-03-23T12:59:23.583Z,26.42
2019-03-23T13:02:27.664Z,26.43
2019-03-23T13:05:33.649Z,26.47
2019-03-23T13:08:39.066Z,26.47
2019-03-23T13:11:44.026Z,26.50
2019-03-23T13:14:49.157Z,26.53
2019-03-23T13:17:53.205Z,26.54
2019-03-23T13:20:57.389Z,26.56
2019-03-23T13:24:02.438Z,26.57
2019-03-23T13:27:06.523Z,26.58
2019-03-23T13:30:10.901Z,26.60
2019-03-23T13:33:15.056Z,26.62
2019-03-23T13:36:19.208Z,26.63
2019-03-23T13:39:23.221Z,26.65
2019-03-23T13:42:27.245Z,26.67
2019-03-23T13:45:31.339Z,26.67
2019-03-23T13:48:36.379Z,26.69
2019-03-23T13:51:40.583Z,26.71
2019-03-23T13:54:44.635Z,26.74
2019-03-23T13:57:48.639Z,26.75
2019-03-23T14:00:53.653Z,26.76
2019-03-23T14:03:57.787Z,26.78
2019-03-23T14:07:02.984Z,26.80
2019-03-23T14:10:07.036Z,26.81
2019-03-23T14:13:11.123Z,26.83
2019-03-23T14:16:15.263Z,26.85
2019-03-23T14:19:19.384Z,26.86
2019-03-23T14:22:23.499Z,26.87
2019-03-23T14:25:27.595Z,26.89
2019-03-23T14:28:31.802Z,26.91
2019-03-23T14:31:36.942Z,26.92
2019-03-23T14:34:40.978Z,26.94
2019-03-23T14:37:45.123Z,26.95
2019-03-23T14:40:49.114Z,26.98
2019-03-23T14:43:54.235Z,26.98
2019-03-23T14:46:58.252Z,27.00
2019-03-23T14:50:02.260Z,27.00
2019-03-23T14:53:06.579Z,27.02
2019-03-23T14:56:10.589Z,27.03
2019-03-23T14:59:14.638Z,27.06
2019-03-23T15:02:18.645Z,27.08
2019-03-23T15:05:22.624Z,27.08
2019-03-23T15:08:26.660Z,27.11
2019-03-23T15:11:31.636Z,27.13
2019-03-23T15:14:35.610Z,27.16
2019-03-23T15:17:48.436Z,27.17
2019-03-23T15:20:45.277Z,27.19
2019-03-23T15:23:49.226Z,27.20
2019-03-23T15:26:53.216Z,27.23
2019-03-23T15:29:57.205Z,27.27
2019-03-23T15:33:03.274Z,27.34
2019-03-23T15:36:07.378Z,27.33
2019-03-23T15:39:11.347Z,27.31
2019-03-23T15:42:24.268Z,27.32
2019-03-23T15:45:21.234Z,27.33
2019-03-23T15:48:25.195Z,27.33
2019-03-23T15:51:32.287Z,27.34
2019-03-23T15:54:36.283Z,27.35
2019-03-23T15:57:40.357Z,27.36
2019-03-23T16:00:44.333Z,27.37
2019-03-23T16:03:49.322Z,27.38
2019-03-23T16:06:53.292Z,27.38
2019-03-23T16:09:57.371Z,27.37
2019-03-23T16:13:03.361Z,27.38
2019-03-23T16:16:07.355Z,27.37
2019-03-23T16:19:11.318Z,27.37
2019-03-23T16:22:15.274Z,27.38
2019-03-23T16:25:19.482Z,27.37
2019-03-23T16:28:23.758Z,27.36
2019-03-23T16:31:27.865Z,27.35
2019-03-23T16:34:31.912Z,27.33
2019-03-23T16:37:35.900Z,27.32
2019-03-23T16:40:39.858Z,27.32
2019-03-23T16:43:43.905Z,27.31
2019-03-23T16:46:47.867Z,27.30
2019-03-23T16:49:51.895Z,27.29
2019-03-23T16:52:55.906Z,27.28
2019-03-23T16:56:00.967Z,27.27
2019-03-23T16:59:05.062Z,27.25
2019-03-23T17:02:09.186Z,27.23
2019-03-23T17:05:13.362Z,27.22
2019-03-23T17:08:17.495Z,27.21
2019-03-23T17:11:21.520Z,27.21
2019-03-23T17:14:26.471Z,27.20
2019-03-23T17:17:30.732Z,27.19
2019-03-23T17:20:34.906Z,27.17
2019-03-23T17:23:39.091Z,27.17
2019-03-23T17:26:43.396Z,27.17
2019-03-23T17:29:47.467Z,27.17
2019-03-23T17:32:51.644Z,27.13
2019-03-23T17:35:57.737Z,27.09
2019-03-23T17:39:01.870Z,27.07
2019-03-23T17:42:05.878Z,27.03
2019-03-23T17:45:10.010Z,27.01
2019-03-23T17:48:13.977Z,27.02
2019-03-23T17:51:19.026Z,27.00
2019-03-23T17:54:22.990Z,26.98
2019-03-23T17:57:27.159Z,26.96
2019-03-23T18:00:31.550Z,26.95
2019-03-23T18:03:35.674Z,26.92
2019-03-23T18:06:39.716Z,26.89
2019-03-23T18:09:43.861Z,26.91
2019-03-23T18:12:48.824Z,26.92
2019-03-23T18:15:52.793Z,26.92
2019-03-23T18:18:57.085Z,26.91
2019-03-23T18:22:01.178Z,26.90
2019-03-23T18:25:06.251Z,26.91
2019-03-23T18:28:10.370Z,26.88
2019-03-23T18:31:14.385Z,26.86
2019-03-23T18:34:19.422Z,26.86
2019-03-23T18:37:23.532Z,26.85
2019-03-23T18:40:27.649Z,26.84
2019-03-23T18:43:31.616Z,26.84
2019-03-23T18:46:37.725Z,26.82
2019-03-23T18:49:41.758Z,26.82
2019-03-23T18:52:45.784Z,26.78
2019-03-23T18:55:49.747Z,26.76
2019-03-23T18:58:53.728Z,26.78
2019-03-23T19:01:57.693Z,26.76
2019-03-23T19:05:01.811Z,26.76
2019-03-23T19:08:06.319Z,26.74
2019-03-23T19:11:10.336Z,26.74
2019-03-23T19:14:19.475Z,26.75
2019-03-23T19:17:23.650Z,26.73
2019-03-23T19:20:27.783Z,26.70
2019-03-23T19:23:31.867Z,26.70
2019-03-23T19:26:36.013Z,26.69
2019-03-23T19:29:40.238Z,26.69
2019-03-23T19:32:44.266Z,26.71
2019-03-23T19:35:48.268Z,26.68
2019-03-23T19:38:52.276Z,26.68
2019-03-23T19:41:56.291Z,26.70
2019-03-23T19:45:00.412Z,26.68
2019-03-23T19:48:04.609Z,26.68
2019-03-23T19:51:08.581Z,26.69
2019-03-23T19:54:12.834Z,26.69
2019-03-23T19:57:16.891Z,26.67
2019-03-23T20:00:21.066Z,26.65
2019-03-23T20:03:25.105Z,26.67
2019-03-23T20:06:29.301Z,26.66
2019-03-23T20:09:33.418Z,26.66
2019-03-23T20:12:37.495Z,26.66
2019-03-23T20:15:41.599Z,26.67
2019-03-23T20:18:45.589Z,26.66
2019-03-23T20:21:49.646Z,26.68
2019-03-23T20:24:53.791Z,26.66
2019-03-23T20:27:57.968Z,26.67
2019-03-23T20:31:02.054Z,26.67
2019-03-23T20:34:08.100Z,26.66
2019-03-23T20:37:12.112Z,26.67
2019-03-23T20:40:17.195Z,26.68
2019-03-23T20:43:21.166Z,26.65
2019-03-23T20:46:25.210Z,26.64
2019-03-23T20:49:29.189Z,26.64
2019-03-23T20:52:33.200Z,26.66
2019-03-23T20:55:37.396Z,26.65
2019-03-23T20:58:41.453Z,26.66
2019-03-23T21:01:45.632Z,26.65
2019-03-23T21:04:49.675Z,26.66
2019-03-23T21:07:55.635Z,26.66
2019-03-23T21:10:59.678Z,26.67
2019-03-23T21:14:03.661Z,26.67
2019-03-23T21:17:07.637Z,26.65
2019-03-23T21:20:11.616Z,26.66
2019-03-23T21:23:15.632Z,26.68
2019-03-23T21:26:19.610Z,26.67
2019-03-23T21:29:23.692Z,26.66
2019-03-23T21:32:27.662Z,26.69
2019-03-23T21:35:32.661Z,26.68
2019-03-23T21:38:36.637Z,26.68
2019-03-23T21:41:40.692Z,26.67
2019-03-23T21:44:44.704Z,26.66
2019-03-23T21:47:48.708Z,26.61
2019-03-23T21:50:52.853Z,26.58
2019-03-23T21:53:56.853Z,26.56
2019-03-23T21:57:01.134Z,26.54
2019-03-23T22:00:07.194Z,26.53
2019-03-23T22:03:11.416Z,26.52
2019-03-23T22:06:15.494Z,26.51
2019-03-23T22:09:19.547Z,26.51
2019-03-23T22:12:23.710Z,26.48
2019-03-23T22:15:31.291Z,26.47
2019-03-23T22:18:35.475Z,26.45
2019-03-23T22:21:39.444Z,26.45
2019-03-23T22:24:44.517Z,26.43
2019-03-23T22:27:48.499Z,26.42
2019-03-23T22:30:52.549Z,26.41
2019-03-23T22:33:56.547Z,26.40
2019-03-23T22:37:00.792Z,26.38
2019-03-23T22:40:05.483Z,26.38
2019-03-23T22:43:09.643Z,26.36
2019-03-23T22:46:16.812Z,26.36
2019-03-23T22:49:20.997Z,26.34
2019-03-23T22:52:24.979Z,26.35
2019-03-23T22:55:29.003Z,26.32
2019-03-23T22:58:33.016Z,26.31
2019-03-23T23:01:38.167Z,26.29
2019-03-23T23:04:42.144Z,26.29
2019-03-23T23:07:46.396Z,26.26
2019-03-23T23:10:50.552Z,26.26
2019-03-23T23:13:54.635Z,26.24
2019-03-23T23:16:58.787Z,26.23
2019-03-23T23:20:02.844Z,26.23
2019-03-23T23:23:06.853Z,26.21
2019-03-23T23:26:10.920Z,26.20
2019-03-23T23:29:15.045Z,26.18
2019-03-23T23:32:19.220Z,26.17
2019-03-23T23:35:24.265Z,26.15
2019-03-23T23:38:29.228Z,26.15
2019-03-23T23:41:33.280Z,26.12
2019-03-23T23:44:37.297Z,26.11
2019-03-23T23:47:41.306Z,26.10
2019-03-23T23:50:45.403Z,26.10
2019-03-23T23:53:49.605Z,26.09
2019-03-23T23:56:54.756Z,26.08
2019-03-23T23:59:58.861Z,26.07
